Map

Track Data

SID SEASON NUMBER BASIN SUBBASIN NAME ISO_TIME NATURE LAT LON WMO_WIND WMO_PRES WMO_AGENCY TRACK_TYPE DIST2LAND LANDFALL IFLAG USA_AGENCY USA_ATCF_ID USA_LAT USA_LON USA_RECORD USA_STATUS USA_WIND USA_PRES USA_SSHS USA_R34_NE USA_R34_SE USA_R34_SW USA_R34_NW USA_R50_NE USA_R50_SE USA_R50_SW USA_R50_NW USA_R64_NE USA_R64_SE USA_R64_SW USA_R64_NW USA_POCI USA_ROCI USA_RMW USA_EYE TOKYO_LAT TOKYO_LON TOKYO_GRADE TOKYO_WIND TOKYO_PRES TOKYO_R50_DIR TOKYO_R50_LONG TOKYO_R50_SHORT TOKYO_R30_DIR TOKYO_R30_LONG TOKYO_R30_SHORT TOKYO_LAND CMA_LAT CMA_LON CMA_CAT CMA_WIND CMA_PRES HKO_LAT HKO_LON HKO_CAT HKO_WIND HKO_PRES NEWDELHI_LAT NEWDELHI_LON NEWDELHI_GRADE NEWDELHI_WIND NEWDELHI_PRES NEWDELHI_CI NEWDELHI_DP NEWDELHI_POCI REUNION_LAT REUNION_LON REUNION_TYPE REUNION_WIND REUNION_PRES REUNION_TNUM REUNION_CI REUNION_RMW REUNION_R34_NE REUNION_R34_SE REUNION_R34_SW REUNION_R34_NW REUNION_R50_NE REUNION_R50_SE REUNION_R50_SW REUNION_R50_NW REUNION_R64_NE REUNION_R64_SE REUNION_R64_SW REUNION_R64_NW BOM_LAT BOM_LON BOM_TYPE BOM_WIND BOM_PRES BOM_TNUM BOM_CI BOM_RMW BOM_R34_NE BOM_R34_SE BOM_R34_SW BOM_R34_NW BOM_R50_NE BOM_R50_SE BOM_R50_SW BOM_R50_NW BOM_R64_NE BOM_R64_SE BOM_R64_SW BOM_R64_NW BOM_ROCI BOM_POCI BOM_EYE BOM_POS_METHOD BOM_PRES_METHOD NADI_LAT NADI_LON NADI_CAT NADI_WIND NADI_PRES WELLINGTON_LAT WELLINGTON_LON WELLINGTON_WIND WELLINGTON_PRES DS824_LAT DS824_LON DS824_STAGE DS824_WIND DS824_PRES TD9636_LAT TD9636_LON TD9636_STAGE TD9636_WIND TD9636_PRES TD9635_LAT TD9635_LON TD9635_WIND TD9635_PRES TD9635_ROCI NEUMANN_LAT NEUMANN_LON NEUMANN_CLASS NEUMANN_WIND NEUMANN_PRES MLC_LAT MLC_LON MLC_CLASS MLC_WIND MLC_PRES USA_GUST BOM_GUST BOM_GUST_PER REUNION_GUST REUNION_GUST_PER USA_SEAHGT USA_SEARAD_NE USA_SEARAD_SE USA_SEARAD_SW USA_SEARAD_NW STORM_SPEED STORM_DIR
1984302N00149 1984 106 WP MM AGNES 1984-10-28 00:00:00 NR 0.100000 148.500 main 275 275 __________O___ -1 0.100000 148.500 0 2 337
1984302N00149 1984 106 WP MM AGNES 1984-10-28 03:00:00 NR 0.188965 148.467 main 285 280 __________P___ -1 0.188965 148.467 0 2 338
1984302N00149 1984 106 WP MM AGNES 1984-10-28 06:00:00 NR 0.280169 148.432 main 291 291 __________P___ -1 0.280169 148.432 0 2 338
1984302N00149 1984 106 WP MM AGNES 1984-10-28 09:00:00 NR 0.375856 148.391 main 301 301 __________P___ -1 0.375856 148.391 0 2 336
1984302N00149 1984 106 WP MM AGNES 1984-10-28 12:00:00 NR 0.478266 148.341 main 308 308 __________P___ -1 0.478266 148.341 0 2 333
1984302N00149 1984 106 WP MM AGNES 1984-10-28 15:00:00 NR 0.589642 148.280 main 318 315 __________P___ -1 0.589642 148.280 0 3 330
1984302N00149 1984 106 WP MM AGNES 1984-10-28 18:00:00 NR 0.712228 148.205 main 326 326 __________P___ -1 0.712228 148.205 0 3 327
1984302N00149 1984 106 WP MM AGNES 1984-10-28 21:00:00 NR 0.848266 148.112 main 334 334 __________P___ -1 0.848266 148.112 0 4 324
1984302N00149 1984 106 WP MM AGNES 1984-10-29 00:00:00 NR 1.00000 148.000 main 353 353 __________O___ -1 1.00000 148.000 0 4 322
1984302N00149 1984 106 WP MM AGNES 1984-10-29 03:00:00 NR 1.16797 147.866 main 373 372 __________P___ -1 1.16797 147.866 0 4 321
1984302N00149 1984 106 WP MM AGNES 1984-10-29 06:00:00 NR 1.34593 147.717 main 382 382 __________P___ -1 1.34593 147.717 0 5 319
1984302N00149 1984 106 WP MM AGNES 1984-10-29 09:00:00 NR 1.52592 147.559 main 404 403 __________P___ -1 1.52592 147.559 0 5 318
1984302N00149 1984 106 WP MM AGNES 1984-10-29 12:00:00 NR 1.70000 147.400 main 425 425 __________O___ -1 1.70000 147.400 0 4 317
1984302N00149 1984 106 WP MM AGNES 1984-10-29 15:00:00 NR 1.85312 147.254 main 448 448 __________P___ -1 1.85312 147.254 0 4 316
1984302N00149 1984 106 WP MM AGNES 1984-10-29 18:00:00 NR 1.99999 147.107 main 459 459 __________P___ -1 1.99999 147.107 0 4 315
1984302N00149 1984 106 WP MM AGNES 1984-10-29 21:00:00 NR 2.14687 146.957 main 470 470 __________P___ -1 2.14687 146.957 0 4 315
1984302N00149 1984 106 WP MM AGNES 1984-10-30 00:00:00 NR 2.30000 146.800 main 493 493 __________O___ -1 2.30000 146.800 0 5 314
1984302N00149 1984 106 WP MM AGNES 1984-10-30 03:00:00 NR 2.47188 146.624 main 515 515 __________P___ -1 2.47188 146.624 0 5 315
1984302N00149 1984 106 WP MM AGNES 1984-10-30 06:00:00 NR 2.65001 146.443 main 538 538 __________P___ -1 2.65001 146.443 0 5 315
1984302N00149 1984 106 WP MM AGNES 1984-10-30 09:00:00 NR 2.82813 146.265 main 550 550 __________P___ -1 2.82813 146.265 0 5 316
1984302N00149 1984 106 WP MM AGNES 1984-10-30 12:00:00 NR 3.00000 146.100 main 574 574 O_________O___ jtwc_wp WP271984 3.00000 146.100 25 -1 3.00000 146.100 1 25 4 316
1984302N00149 1984 106 WP MM AGNES 1984-10-30 15:00:00 NR 3.14936 145.958 main 586 586 P_________P___ WP271984 3.15001 145.938 25 -1 3.14904 145.969 1 25 4 317
1984302N00149 1984 106 WP MM AGNES 1984-10-30 18:00:00 NR 3.29570 145.829 main 611 611 O_________P___ jtwc_wp WP271984 3.30000 145.800 25 -1 3.29247 145.850 1 25 4 320
1984302N00149 1984 106 WP MM AGNES 1984-10-30 21:00:00 NR 3.44483 145.716 main 624 624 P_________P___ WP271984 3.44999 145.700 25 -1 3.43966 145.731 1 25 4 323
1984302N00149 1984 106 WP MM AGNES 1984-10-31 00:00:00 NR 3.60000 145.600 main 648 648 O_________O___ jtwc_wp WP271984 3.60000 145.600 25 -1 3.60000 145.600 1 25 4 321
1984302N00149 1984 106 WP MM AGNES 1984-10-31 03:00:00 NR 3.75624 145.460 main 672 672 P_________P___ WP271984 3.73500 145.465 25 -1 3.77748 145.456 1 25 5 318
1984302N00149 1984 106 WP MM AGNES 1984-10-31 06:00:00 NR 3.93498 145.297 main 687 687 O_________P___ jtwc_wp WP271984 3.90000 145.300 25 -1 3.96996 145.295 1 25 5 319
1984302N00149 1984 106 WP MM AGNES 1984-10-31 09:00:00 NR 4.15998 145.110 main 725 725 P_________P___ WP271984 4.14250 145.108 25 -1 4.17747 145.112 1 25 6 317
1984302N00149 1984 106 WP MM AGNES 1984-10-31 12:00:00 TS 4.35556 144.911 1004 tokyo main 752 752 OO________O___ jtwc_wp WP271984 4.40000 144.900 25 -1 4.00000 145.000 2 1004 0 0 0 4.40000 144.900 1 25 5 314
1984302N00149 1984 106 WP MM AGNES 1984-10-31 15:00:00 TS 4.53621 144.713 main 769 769 PP________P___ WP271984 4.59247 144.722 27 -1 4.25754 144.738 2 1003 0 0 4.61928 144.690 1 27 6 324
1984302N00149 1984 106 WP MM AGNES 1984-10-31 18:00:00 TS 4.85994 144.541 1002 tokyo main 818 818 OOO_______P___ jtwc_wp WP271984 4.80000 144.500 30 -1 4.50000 144.500 2 1002 0 0 0 6.20000 145.200 1 23 1004 4.85482 144.447 1 30 7 324
1984302N00149 1984 106 WP MM AGNES 1984-10-31 21:00:00 TS 5.13119 144.283 main 846 846 PPP_______P___ WP271984 5.09250 144.180 32 -1 4.72744 144.287 2 1001 0 0 6.05250 144.735 1 26 1002 5.11296 144.156 1 32 8 311
1984302N00149 1984 106 WP MM AGNES 1984-11-01 00:00:00 TS 5.38750 143.925 1000 tokyo main 892 892 OOOO______O___ jtwc_wp WP271984 5.40000 143.800 35 0 5.00000 144.000 2 1000 0 0 0 5.90000 144.200 1 29 1000 5.30000 143.800 TD 25 998 5.40000 143.800 2 35 10 301
1984302N00149 1984 106 WP MM AGNES 1984-11-01 03:00:00 TS 5.62805 143.464 main 929 929 PPPP______P___ WP271984 5.62742 143.437 40 0 5.36998 143.560 2 998 0 0 5.76755 143.557 1 33 998 5.64758 143.308 TD 25 997 5.73749 143.381 2 38 11 298
1984302N00149 1984 106 WP MM AGNES 1984-11-01 06:00:00 TS 5.91578 142.926 35 996 tokyo main 969 969 OOOO______P___ jtwc_wp WP271984 5.90000 143.000 45 0 5.80000 143.000 3 35 996 0 9 90 90 0 5.80000 142.900 2 38 996 6.00000 142.800 TD 25 996 6.09995 142.898 2 42 13 302
1984302N00149 1984 106 WP MM AGNES 1984-11-01 09:00:00 TS 6.31344 142.358 main 996 991 PPPP______P___ WP271984 6.34247 142.445 47 0 6.26502 142.365 3 37 994 0 9 105 105 6.13985 142.350 2 43 994 6.35744 142.265 TD 27 995 6.46242 142.365 2 46 14 305
1984302N00149 1984 106 WP MM AGNES 1984-11-01 12:00:00 TS 6.72000 141.760 40 992 tokyo main 1012 1008 OOOO______O___ jtwc_wp WP271984 6.80000 141.800 50 0 6.70000 141.700 3 40 992 0 9 120 120 0 6.60000 141.800 3 48 992 6.70000 141.700 TD 30 994 6.80000 141.800 2 50 14 301
1984302N00149 1984 106 WP MM AGNES 1984-11-01 15:00:00 TS 7.04837 141.129 main 1016 1016 PPPP______P___ WP271984 7.13758 141.085 52 0 7.02989 141.092 3 40 991 0 9 122 122 6.97252 141.150 3 48 991 7.01498 141.100 TD 32 993 7.08691 141.216 2 51 14 296
1984302N00149 1984 106 WP MM AGNES 1984-11-01 18:00:00 TS 7.32901 140.501 40 990 tokyo main 1029 1029 OOOO______P___ jtwc_wp WP271984 7.40000 140.400 55 0 7.30000 140.500 3 40 990 0 9 125 125 0 7.30000 140.500 3 48 990 7.30000 140.500 TS 35 992 7.34506 140.607 2 52 13 294
1984302N00149 1984 106 WP MM AGNES 1984-11-01 21:00:00 TS 7.57655 139.924 main 1040 1032 PPPP______P___ WP271984 7.60732 139.870 55 0 7.56500 139.877 3 40 990 0 9 125 125 7.56487 139.935 3 48 990 7.56490 139.942 TS 37 992 7.58066 139.995 2 53 12 293
1984302N00149 1984 106 WP MM AGNES 1984-11-02 00:00:00 TS 7.80000 139.380 40 990 tokyo main 1039 1034 OOOO______O___ jtwc_wp WP271984 7.80000 139.400 55 0 7.80000 139.300 3 40 990 0 9 125 125 0 7.80000 139.400 3 48 990 7.80000 139.400 TS 40 992 7.80000 139.400 2 55 12 293
1984302N00149 1984 106 WP MM AGNES 1984-11-02 03:00:00 TS 8.03417 138.858 main 1040 1037 PPPP______P___ WP271984 8.05741 138.908 57 0 8.00732 138.842 3 40 990 0 9 137 112 8.06496 138.843 3 53 989 8.01496 138.842 TS 45 990 8.02621 138.853 2 57 11 294
1984302N00149 1984 106 WP MM AGNES 1984-11-02 06:00:00 TS 8.24741 138.345 40 990 tokyo main 1041 1041 OOOO______P___ jtwc_wp WP271984 8.30000 138.400 60 0 8.20000 138.400 3 40 990 0 8 150 100 0 8.30000 138.300 3 58 988 8.20000 138.300 STS 50 988 8.23703 138.327 2 60 11 291
1984302N00149 1984 106 WP MM AGNES 1984-11-02 09:00:00 TS 8.42784 137.818 main 1048 1048 PPPP______P___ WP271984 8.47248 137.850 62 0 8.41504 137.850 3 42 987 0 8 150 100 8.46491 137.792 3 58 986 8.35743 137.785 STS 52 986 8.42936 137.813 2 62 11 288
1984302N00149 1984 106 WP MM AGNES 1984-11-02 12:00:00 TS 8.58000 137.300 45 985 tokyo main 1059 1055 OOOO______O___ jtwc_wp WP271984 8.60000 137.300 65 1 8.60000 137.300 3 45 985 0 8 150 100 0 8.60000 137.300 3 58 985 8.50000 137.300 STS 55 985 8.60000 137.300 3 65 10 286
1984302N00149 1984 106 WP MM AGNES 1984-11-02 15:00:00 TS 8.71061 136.826 main 1061 1060 PPPP______P___ WP271984 8.69987 136.800 72 1 8.70730 136.857 3 45 985 0 8 150 125 8.74990 136.807 3 63 982 8.64980 136.872 STS 60 983 8.74618 136.791 3 71 10 285
1984302N00149 1984 106 WP MM AGNES 1984-11-02 18:00:00 TS 8.83439 136.336 45 985 tokyo main 1067 1023 OOOO______P___ jtwc_wp WP271984 8.80000 136.300 80 1 8.80000 136.400 3 45 985 0 9 150 150 0 8.90000 136.300 4 68 980 8.80000 136.400 T 65 981 8.87194 136.280 3 77 11 285
1984302N00149 1984 106 WP MM AGNES 1984-11-02 21:00:00 TS 8.97882 135.777 main 1023 959 PPPP______P___ WP271984 8.94242 135.765 85 2 8.94250 135.822 3 50 980 0 9 175 175 9.06488 135.773 4 72 977 8.95757 135.773 T 72 978 8.98674 135.753 3 83 12 284
1984302N00149 1984 106 WP MM AGNES 1984-11-03 00:00:00 TS 9.12000 135.180 55 975 tokyo main 959 896 OOOO______O___ jtwc_wp WP271984 9.10000 135.200 90 2 9.10000 135.200 4 55 975 9 75 75 9 200 200 0 9.20000 135.200 4 77 975 9.10000 135.100 T 80 975 9.10000 135.200 4 90 12 282
1984302N00149 1984 106 WP MM AGNES 1984-11-03 03:00:00 TS 9.23787 134.580 main 896 833 PPPP______P___ WP271984 9.25740 134.615 95 2 9.25732 134.615 4 65 970 9 75 75 9 200 200 9.24996 134.565 4 82 965 9.19982 134.500 T 82 965 9.22486 134.608 4 95 12 281
1984302N00149 1984 106 WP MM AGNES 1984-11-03 06:00:00 TS 9.34996 133.957 75 965 tokyo main 833 764 OOOO______P___ jtwc_wp WP271984 9.40000 134.000 100 3 9.40000 134.000 5 75 965 9 75 75 9 200 200 0 9.30000 133.900 5 87 955 9.30000 133.900 ST 85 955 9.34978 133.987 4 100 13 281
1984302N00149 1984 106 WP MM AGNES 1984-11-03 09:00:00 TS 9.47794 133.297 main 764 704 PPPP______P___ WP271984 9.50742 133.357 105 3 9.50757 133.292 5 82 957 9 75 75 9 200 200 9.44242 133.243 5 87 947 9.45750 133.243 ST 87 950 9.47480 133.348 4 105 13 281
1984302N00149 1984 106 WP MM AGNES 1984-11-03 12:00:00 TS 9.60000 132.640 90 950 tokyo main 693 645 OOOO______O___ jtwc_wp WP271984 9.60000 132.700 110 3 9.60000 132.600 5 90 950 9 75 75 9 200 200 0 9.60000 132.600 5 87 940 9.60000 132.600 ST 90 945 9.60000 132.700 4 110 13 280
1984302N00149 1984 106 WP MM AGNES 1984-11-03 15:00:00 TS 9.69314 132.041 main 634 581 PPPP______P___ WP271984 9.69238 132.050 110 3 9.69972 132.042 5 95 945 9 75 75 9 200 200 9.70732 132.000 5 92 935 9.64976 132.050 ST 92 942 9.71652 132.061 4 110 12 279
1984302N00149 1984 106 WP MM AGNES 1984-11-03 18:00:00 TS 9.78690 131.443 100 940 tokyo main 571 509 OOOO______P___ jtwc_wp WP271984 9.80000 131.400 110 3 9.80000 131.500 5 100 940 9 75 75 9 200 200 0 9.80000 131.400 5 97 930 9.70000 131.500 ST 95 940 9.83451 131.415 4 110 12 279
1984302N00149 1984 106 WP MM AGNES 1984-11-03 21:00:00 TS 9.89547 130.803 main 509 447 PPPP______P___ WP271984 9.93488 130.750 110 3 9.87741 130.872 5 100 935 9 75 75 9 200 200 9.87742 130.757 5 97 927 9.82741 130.872 ST 97 932 9.96023 130.761 4 110 13 281
1984302N00149 1984 106 WP MM AGNES 1984-11-04 00:00:00 TS 10.0400 130.140 100 930 tokyo main 437 378 OOOO______O___ jtwc_wp WP271984 10.1000 130.100 110 3 10.0000 130.200 5 100 930 9 75 75 9 200 200 0 10.0000 130.100 5 97 925 10.0000 130.200 SuperT 100 925 10.1000 130.100 4 110 14 285
1984302N00149 1984 106 WP MM AGNES 1984-11-04 03:00:00 TS 10.2458 129.480 main 378 320 PPPP______P___ WP271984 10.2998 129.458 112 3 10.2349 129.508 5 100 927 9 75 75 9 200 200 10.2423 129.465 5 97 925 10.1924 129.507 SuperT 100 925 10.2598 129.460 4 111 14 288
1984302N00149 1984 106 WP MM AGNES 1984-11-04 06:00:00 TS 10.4668 128.802 100 925 tokyo main 320 266 OOOO______P___ jtwc_wp WP271984 10.5000 128.800 115 4 10.5000 128.800 5 100 925 9 75 75 9 200 200 0 10.5000 128.800 5 97 925 10.4000 128.800 SuperT 100 925 10.4338 128.810 4 112 14 287
1984302N00149 1984 106 WP MM AGNES 1984-11-04 09:00:00 TS 10.6490 128.111 main 255 176 PPPP______P___ WP271984 10.6498 128.122 115 4 10.7222 128.122 5 100 925 9 75 75 9 200 200 10.6575 128.057 5 97 925 10.5997 128.122 SuperT 100 925 10.6159 128.129 4 113 14 284
1984302N00149 1984 106 WP MM AGNES 1984-11-04 12:00:00 TS 10.8200 127.380 100 925 tokyo main 176 87 OOOO______O___ jtwc_wp WP271984 10.8000 127.400 115 4 10.9000 127.400 5 100 925 9 75 75 9 200 200 0 10.8000 127.300 5 97 925 10.8000 127.400 SuperT 100 925 10.8000 127.400 4 115 15 283
1984302N00149 1984 106 WP MM AGNES 1984-11-04 15:00:00 TS 11.0011 126.601 main 87 15 PPPP______P___ WP271984 10.9998 126.630 117 4 11.0149 126.572 5 102 932 9 75 75 9 200 200 10.9919 126.637 5 97 925 11.0074 126.572 SuperT 100 927 10.9913 126.592 4 111 16 283
1984302N00149 1984 106 WP MM AGNES 1984-11-04 18:00:00 TS 11.1760 125.768 105 940 tokyo main 15 0 OOOO______P___ jtwc_wp WP271984 11.2000 125.800 120 4 11.1000 125.700 5 105 940 9 75 75 9 200 200 0 11.2000 125.900 5 97 925 11.2000 125.700 SuperT 100 930 11.1801 125.738 4 107 17 281
1984302N00149 1984 106 WP MM AGNES 1984-11-04 21:00:00 TS 11.3457 124.873 main 0 0 PPPP______P___ WP271984 11.3725 124.900 110 3 11.2073 124.843 5 92 950 9 67 67 9 187 187 11.4228 124.923 5 92 932 11.3724 124.835 SuperT 95 940 11.3538 124.864 4 103 18 280
1984302N00149 1984 106 WP MM AGNES 1984-11-05 00:00:00 TS 11.4800 123.980 80 960 tokyo main 24 10 OOOO______O___ jtwc_wp WP271984 11.5000 124.000 100 3 11.3000 124.000 5 80 960 9 60 60 9 175 175 0 11.6000 123.900 5 87 940 11.5000 124.000 ST 90 950 11.5000 124.000 4 100 17 277
1984302N00149 1984 106 WP MM AGNES 1984-11-05 03:00:00 TS 11.5455 123.158 main 10 0 PPPP______P___ WP271984 11.5572 123.185 92 2 11.3423 123.185 5 67 970 9 60 60 9 175 175 11.6648 122.997 5 87 945 11.5646 123.242 ST 85 962 11.5989 123.181 4 92 16 274
1984302N00149 1984 106 WP MM AGNES 1984-11-05 06:00:00 TS 11.5943 122.375 55 980 tokyo main 0 0 OOOO______P___ jtwc_wp WP271984 11.6000 122.400 85 2 11.4000 122.400 4 55 980 9 60 60 9 175 175 0 11.7000 122.200 5 87 950 11.6000 122.500 T 80 975 11.6715 122.377 4 85 15 275
1984302N00149 1984 106 WP MM AGNES 1984-11-05 09:00:00 TS 11.6804 121.615 main 24 24 PPPP______P___ WP271984 11.6849 121.585 77 1 11.5422 121.643 4 57 977 9 55 55 9 162 162 11.7994 121.550 5 77 962 11.6423 121.715 T 75 977 11.7333 121.584 4 77 15 277
1984302N00149 1984 106 WP MM AGNES 1984-11-05 12:00:00 TS 11.7800 120.860 60 975 tokyo main 49 49 OOOO______O___ jtwc_wp WP271984 11.8000 120.800 70 1 11.7000 120.900 4 60 975 9 50 50 9 150 150 0 11.9000 120.900 4 68 975 11.7000 120.900 T 70 980 11.8000 120.800 4 70 15 277
1984302N00149 1984 106 WP MM AGNES 1984-11-05 15:00:00 TS 11.8742 120.089 main 86 67 PPPP______P___ WP271984 11.9570 120.108 75 1 11.7997 120.157 4 60 975 9 50 50 9 150 150 11.9500 120.080 4 68 975 11.7848 120.057 T 72 977 11.8794 120.042 4 75 15 277
1984302N00149 1984 106 WP MM AGNES 1984-11-05 18:00:00 TS 11.9736 119.297 60 975 tokyo main 81 81 OOOO______P___ jtwc_wp WP271984 12.1000 119.400 80 1 11.9000 119.400 4 60 975 9 50 50 9 150 150 0 12.0000 119.200 4 68 975 11.9000 119.200 T 75 975 11.9682 119.287 4 80 16 277
1984302N00149 1984 106 WP MM AGNES 1984-11-05 21:00:00 TS 12.0739 118.486 main 140 140 PPPP______P___ WP271984 12.1498 118.587 85 2 12.0347 118.622 4 60 975 9 75 55 9 175 137 12.0697 118.357 4 72 972 12.0422 118.350 T 77 972 12.0730 118.513 4 85 16 278
1984302N00149 1984 106 WP MM AGNES 1984-11-06 00:00:00 TS 12.2000 117.640 60 975 tokyo main 225 225 OOOO______O___ jtwc_wp WP271984 12.2000 117.700 90 2 12.2000 117.800 4 60 975 8 100 60 7 200 125 0 12.2000 117.500 4 77 970 12.2000 117.500 T 80 970 12.2000 117.700 4 90 17 280
1984302N00149 1984 106 WP MM AGNES 1984-11-06 03:00:00 TS 12.3708 116.743 main 323 323 PPPP______P___ WP271984 12.3274 116.757 92 2 12.3997 116.930 4 62 972 8 100 60 7 200 125 12.4424 116.593 4 77 970 12.3347 116.657 T 80 970 12.3500 116.778 4 92 18 282
1984302N00149 1984 106 WP MM AGNES 1984-11-06 06:00:00 TS 12.5642 115.824 65 970 tokyo main 422 422 OOOO______P___ jtwc_wp WP271984 12.5000 115.800 95 2 12.6000 116.000 5 65 970 8 100 60 7 200 125 0 12.7000 115.700 4 77 970 12.5000 115.800 T 80 970 12.5210 115.820 4 95 18 282
1984302N00149 1984 106 WP MM AGNES 1984-11-06 09:00:00 TS 12.7512 114.900 main 512 498 PPPP______P___ WP271984 12.6922 114.885 97 3 12.7501 114.985 5 70 967 8 100 80 7 250 162 12.8647 114.877 4 82 967 12.7426 114.878 T 82 967 12.7063 114.878 4 97 18 282
1984302N00149 1984 106 WP MM AGNES 1984-11-06 12:00:00 TS 12.9400 114.020 75 965 tokyo main 488 412 OOOO______O___ jtwc_wp WP271984 12.9000 114.000 100 3 12.9000 114.000 5 75 965 9 100 100 7 300 200 0 13.0000 114.100 5 87 965 13.0000 114.000 ST 85 965 12.9000 114.000 4 100 17 283
1984302N00149 1984 106 WP MM AGNES 1984-11-06 15:00:00 TS 13.1321 113.211 main 401 328 PPPP______P___ WP271984 13.1001 113.090 100 3 13.0997 113.140 5 75 965 9 100 100 7 300 200 13.1423 113.327 5 87 957 13.2146 113.262 ST 85 965 13.1037 113.237 4 100 15 284
1984302N00149 1984 106 WP MM AGNES 1984-11-06 18:00:00 TS 13.3227 112.489 75 965 tokyo main 328 268 OOOO______P___ jtwc_wp WP271984 13.3000 112.300 100 3 13.3000 112.400 5 75 965 9 100 100 7 300 200 0 13.3000 112.600 5 87 950 13.4000 112.600 ST 85 965 13.3134 112.545 4 100 14 286
1984302N00149 1984 106 WP MM AGNES 1984-11-06 21:00:00 TS 13.5121 111.854 main 268 214 PPPP______P___ WP271984 13.5145 111.755 100 3 13.4572 111.762 5 77 962 9 112 90 7 275 175 13.5073 111.920 5 92 947 13.5649 111.927 ST 87 962 13.5165 111.906 4 100 12 287
1984302N00149 1984 106 WP MM AGNES 1984-11-07 00:00:00 TS 13.6800 111.280 80 960 tokyo main 214 162 OOOO______O___ jtwc_wp WP271984 13.7000 111.300 100 3 13.6000 111.200 5 80 960 8 125 80 7 250 150 0 13.7000 111.300 5 97 945 13.7000 111.300 ST 90 960 13.7000 111.300 4 100 11 285
1984302N00149 1984 106 WP MM AGNES 1984-11-07 03:00:00 TS 13.8019 110.726 main 151 97 PPPP______P___ WP271984 13.8074 110.765 100 3 13.7499 110.635 5 80 962 8 125 80 7 250 150 13.8070 110.772 5 97 947 13.7997 110.742 ST 90 962 13.8454 110.716 4 96 11 282
1984302N00149 1984 106 WP MM AGNES 1984-11-07 06:00:00 TS 13.9142 110.171 80 965 tokyo main 97 34 OOOO______P___ jtwc_wp WP271984 13.9000 110.200 100 3 13.9000 110.100 5 80 965 8 125 80 8 250 150 0 13.9000 110.200 5 97 950 13.9000 110.200 ST 90 965 13.9709 110.157 4 92 12 283
1984302N00149 1984 106 WP MM AGNES 1984-11-07 09:00:00 TS 14.0572 109.559 main 39 0 PPPP______P___ WP271984 14.0574 109.608 92 2 14.0498 109.607 5 70 970 8 100 77 8 200 125 14.0431 109.378 5 82 962 14.0499 109.608 ST 80 975 14.0860 109.594 4 88 12 283
1984302N00149 1984 106 WP MM AGNES 1984-11-07 12:00:00 TS 14.2000 108.940 60 975 tokyo main 0 0 OOOO______O___ jtwc_wp WP271984 14.2000 109.000 85 2 14.2000 109.100 4 60 975 9 75 75 2 150 100 0 14.2000 108.600 4 68 975 14.2000 109.000 T 70 985 14.2000 109.000 4 85 12 282
1984302N00149 1984 106 WP MM AGNES 1984-11-07 15:00:00 TS 14.2908 108.377 main 0 0 PPPP______P___ WP271984 14.2421 108.430 67 1 14.3348 108.530 4 52 982 9 2 150 100 14.3345 108.140 4 53 980 14.2616 108.474 T 57 990 14.2807 108.311 4 70 11 281
1984302N00149 1984 106 WP MM AGNES 1984-11-07 18:00:00 TS 14.4143 107.777 45 990 tokyo main 0 0 OOOO______P___ jtwc_wp WP271984 14.3000 107.800 50 0 14.5000 107.900 3 45 990 0 2 150 100 0 14.5000 107.800 2 38 985 14.4000 107.800 TS 45 995 14.3681 107.591 4 55 13 285
1984302N00149 1984 106 WP MM AGNES 1984-11-07 21:00:00 TS 14.6152 107.094 main 0 0 PPPP______P___ WP271984 14.4627 107.008 37 0 14.7274 107.222 3 40 993 0 2 100 75 14.7124 107.415 2 33 990 14.7394 106.802 TS 37 996 14.4963 106.876 4 40 14 289
1984302N00149 1984 106 WP MM AGNES 1984-11-08 00:00:00 TS 14.8706 106.424 35 996 tokyo main 0 0 OOOO______O___ jtwc_wp WP271984 14.7000 106.200 25 -1 15.0000 106.500 3 35 996 0 9 50 50 0 15.0000 107.000 1 29 995 15.2000 105.600 TD 30 998 14.7000 106.200 1 25 13 296
1984302N00149 1984 106 WP MM AGNES 1984-11-08 03:00:00 TS 15.2001 105.849 main 0 0 PPP_______P___ WP271984 14.9548 105.497 22 -1 15.3077 105.720 3 1000 0 9 15.5343 106.591 1 26 998 TD 15.0036 105.588 1 22 13 299
1984302N00149 1984 106 WP MM AGNES 1984-11-08 06:00:00 TS 15.5285 105.215 1004 tokyo main 0 0 OOO_______P___ jtwc_wp WP271984 15.3000 104.900 20 -1 15.6000 105.000 2 1004 0 0 0 15.8000 106.000 1 23 1002 15.3901 105.030 1 20 13 292
1984302N00149 1984 106 WP MM AGNES 1984-11-08 09:00:00 TS 15.7010 104.588 main 0 0 PPP_______P___ WP271984 15.7651 104.418 17 -1 15.7696 104.462 2 1005 0 0 15.3691 105.092 1 21 1003 15.8316 104.507 1 17 12 286
1984302N00149 1984 106 WP MM AGNES 1984-11-08 12:00:00 TS 15.8714 104.000 1006 tokyo main 0 0 OOO_______O___ jtwc_wp WP271984 16.3000 104.000 15 -1 16.0000 104.000 2 1006 0 0 0 14.5000 104.000 0 19 1004 16.3000 104.000 1 15 14 304
1984302N00149 1984 106 WP MM AGNES 1984-11-08 15:00:00 TS 16.4552 103.426 main 0 0 _P____________ WP271984 -1 16.4552 103.426 2 1006 0 0 0 1 15 320
1984302N00149 1984 106 WP MM AGNES 1984-11-08 18:00:00 TS 17.0000 103.000 1006 tokyo main 0 0 _O____________ -1 17.0000 103.000 2 1006 0 0 0 1 12 335
1984302N00149 1984 106 WP MM AGNES 1984-11-08 21:00:00 TS 17.4998 102.924 main 0 0 _P____________ -1 17.4998 102.924 2 1007 0 0 1 10 1
1984302N00149 1984 106 WP MM AGNES 1984-11-09 00:00:00 TS 18.0000 103.000 1008 tokyo main 0 0 _O____________ -1 18.0000 103.000 2 1008 0 0 0 10 5
1984302N00149 1984 106 WP MM AGNES 1984-11-09 03:00:00 TS 18.5001 103.025 main 0 0 _P____________ -1 18.5001 103.025 2 1008 0 0 10 1
1984302N00149 1984 106 WP MM AGNES 1984-11-09 06:00:00 TS 19.0000 103.000 1008 tokyo main 0 _O____________ -1 19.0000 103.000 2 1008 0 0 0 10 357

Digital Typhoon Data and Search

About IBTrACS Database

This database is a web-friendly format of International Best Track Archive for Climate Stewardship (IBTrACS), a global best track data archive curated by NOAA dating back to 1842.

Updated: 2021-11-26